aviador You're here:

LFRG Decoded Metar

DEAUVILLE in FRANCE
Report Time2017-08-20 19:00:00
UTC Time2017-08-20 19:13:53
Flight Rules vfr VFR
Wind050° at 02 kt
W.Decomp.*RWY 12: 0.7 kt HW 1.9 kt LCW
W.Rank050° ranks 18
Current wind is below 050° avg. (5.8)
Visibility9999 m
Phenomena:N/A
Clouds:N/A
Expected CloudBase > 1,600 ft AGL from Temp-Dew spread
CeilingNone
Temp17°C (ISA +3)
Dew Point13°C (77% RH)
QNH1024 hPa
Density Alt659 ft
Elevation479 ft
Report Wrong Elevation
Raw Report
METAR LFRG 201900Z AUTO 05002KT CAVOK 17/13 Q1024 NOSIG=

Extra information for LFRG:More info

Metar Taf Metar & Taf Last 4 Metars F.Rules Stats Wind Profile Meteogram Temp Stats Airport Information Weather charts Add Link Nearby VenuesMetar ALERT Operation Metar Decoded Social comments